Time;durP1;ratioP1;P1;durP2;ratioP2;P2;SDS_P1;SDS_P2;PMS_P1;PMS_P2;Temp;Humidity;BMP_temperature;BMP_pressure;BME280_temperature;BME280_humidity;BME280_pressure;Samples;Min_cycle;Max_cycle;Signal;HPM_P1;HPM_P2
2021/12/14 00:00:48;;;;;;;;;;;;;;;;;;1007928;29;1173;-17
2021/12/14 00:01:27;;;;;;;;;;;;;;;;;;1008002;29;1052;-16
2021/12/14 00:01:57;;;;;;;;;;;;;;;;;;1007786;29;1047;-16
2021/12/14 00:02:28;;;;;;;;;;;;;;;;;;1008220;29;892;-16
2021/12/14 00:02:59;;;;;;;;;;;;;;;;;;1007789;29;1193;-16
2021/12/14 00:03:31;;;;;;;;;;;;;;;;;;1008021;29;943;-19
2021/12/14 00:04:05;;;;;;;;;;;;;;;;;;1011493;29;1065;-16
2021/12/14 00:04:37;;;;;;;;;;;;;;;;;;1010574;29;955;-16
2021/12/14 00:05:08;;;;;;;;;;;;;;;;;;1007745;29;1038;-17
2021/12/14 00:05:39;;;;;;;;;;;;;;;;;;1007865;29;856;-16
2021/12/14 00:06:11;;;;;;;;;;;;;;;;;;1007983;29;974;-16
2021/12/14 00:06:42;;;;;;;;;;;;;;;;;;1008121;29;828;-17
2021/12/14 00:07:14;;;;;;;;;;;;;;;;;;1007959;29;844;-16
2021/12/14 00:07:44;;;;;;;;;;;;;;;;;;1008123;29;943;-16
2021/12/14 00:08:16;;;;;;;;;;;;;;;;;;1008058;29;868;-16
2021/12/14 00:08:53;;;;;;;;;;;;;;;;;;1008064;29;804;-16
2021/12/14 00:09:28;;;;;;;;;;;;;;;;;;1007699;29;986;-16
2021/12/14 00:10:12;;;;;;;;;;;;;;;;;;1007853;29;1219;-16
2021/12/14 00:11:08;;;;;;;;;;;;;;;;;;1008201;29;1015;-16
2021/12/14 00:13:09;;;;;;;;;;;;;;;;;;1008036;29;863;-16
2021/12/14 00:15:17;;;;;;;;;;;;;;;;;;1007094;29;970;-15
2021/12/14 00:15:48;;;;;;;;;;;;;;;;;;1003856;29;935;-15
2021/12/14 00:16:19;;;;;;;;;;;;;;;;;;1003431;29;1165;-15
2021/12/14 00:16:51;;;;;;;;;;;;;;;;;;1005090;29;978;-15
2021/12/14 00:17:26;;;;;;;;;;;;;;;;;;1007773;29;1618;-15
2021/12/14 00:17:58;;;;;;;;;;;;;;;;;;1012039;29;868;-16
2021/12/14 00:18:28;;;;;;;;;;;;;;;;;;1011597;29;1490;-15
2021/12/14 00:19:01;;;;;;;;;;;;;;;;;;1011871;29;916;-15
2021/12/14 00:19:32;;;;;;;;;;;;;;;;;;1011529;29;1002;-16
2021/12/14 00:20:05;;;;;;;;;;;;;;;;;;1011991;29;817;-15
2021/12/14 00:20:36;;;;;;;;;;;;;;;;;;1008034;29;1063;-15
2021/12/14 00:21:19;;;;;;;;;;;;;;;;;;1007701;29;1496;-15
2021/12/14 00:21:52;;;;;;;;;;;;;;;;;;1007710;29;847;-15
2021/12/14 00:24:26;;;;;;;;;;;;;;;;;;1011916;29;970;-15
2021/12/14 00:24:57;;;;;;;;;;;;;;;;;;1012994;29;1230;-16
2021/12/14 00:25:33;;;;;;;;;;;;;;;;;;1015609;29;811;-16
2021/12/14 00:26:03;;;;;;;;;;;;;;;;;;1015523;29;1117;-15
2021/12/14 00:26:54;;;;;;;;;;;;;;;;;;1015607;29;907;-15
2021/12/14 00:27:25;;;;;;;;;;;;;;;;;;1013558;29;1248;-15
2021/12/14 00:27:59;;;;;;;;;;;;;;;;;;1014798;29;948;-15
2021/12/14 00:28:32;;;;;;;;;;;;;;;;;;1011422;29;1089;-15
2021/12/14 00:29:03;;;;;;;;;;;;;;;;;;1011227;29;970;-15
2021/12/14 00:29:39;;;;;;;;;;;;;;;;;;1007448;29;1147;-15
2021/12/14 00:30:11;;;;;;;;;;;;;;;;;;1003739;29;1235;-15
2021/12/14 00:30:42;;;;;;;;;;;;;;;;;;1004400;29;1244;-16
2021/12/14 00:31:15;;;;;;;;;;;;;;;;;;1003381;29;1003;-15
2021/12/14 00:31:46;;;;;;;;;;;;;;;;;;1004090;29;1962;-15
2021/12/14 00:32:20;;;;;;;;;;;;;;;;;;1001017;29;1101;-15
2021/12/14 00:32:50;;;;;;;;;;;;;;;;;;996697;29;2325;-15
2021/12/14 00:33:24;;;;;;;;;;;;;;;;;;1003478;29;1063;-15
2021/12/14 00:33:56;;;;;;;;;;;;;;;;;;1008445;29;951;-15
2021/12/14 00:34:42;;;;;;;;;;;;;;;;;;1014534;29;1086;-15
2021/12/14 00:35:13;;;;;;;;;;;;;;;;;;1010599;29;971;-15
2021/12/14 00:35:44;;;;;;;;;;;;;;;;;;1007279;29;1575;-15
2021/12/14 00:36:14;;;;;;;;;;;;;;;;;;1007508;29;942;-15
2021/12/14 00:36:45;;;;;;;;;;;;;;;;;;1006868;29;1098;-15
2021/12/14 00:37:20;;;;;;;;;;;;;;;;;;1011181;29;820;-15
2021/12/14 00:37:52;;;;;;;;;;;;;;;;;;1009406;29;962;-15
2021/12/14 00:38:22;;;;;;;;;;;;;;;;;;1011078;29;931;-15
2021/12/14 00:38:56;;;;;;;;;;;;;;;;;;1012432;29;1093;-15
2021/12/14 00:39:26;;;;;;;;;;;;;;;;;;1014578;29;847;-15
2021/12/14 00:39:58;;;;;;;;;;;;;;;;;;1012633;29;1199;-16
2021/12/14 00:40:31;;;;;;;;;;;;;;;;;;1011556;29;1174;-16
2021/12/14 00:41:20;;;;;;;;;;;;;;;;;;1006314;29;4208;-16
2021/12/14 00:41:51;;;;;;;;;;;;;;;;;;1011410;29;919;-15
2021/12/14 00:42:21;;;;;;;;;;;;;;;;;;1009678;29;2602;-16
2021/12/14 00:42:52;;;;;;;;;;;;;;;;;;1012950;29;959;-15
2021/12/14 00:43:23;;;;;;;;;;;;;;;;;;1014837;29;1085;-15
2021/12/14 00:43:54;;;;;;;;;;;;;;;;;;1012979;29;931;-15
2021/12/14 00:44:44;;;;;;;;;;;;;;;;;;1011397;29;1417;-15
2021/12/14 00:45:15;;;;;;;;;;;;;;;;;;1006807;29;1367;-15
2021/12/14 00:45:46;;;;;;;;;;;;;;;;;;1005637;29;1190;-16
2021/12/14 00:46:18;;;;;;;;;;;;;;;;;;1010643;29;1191;-15
2021/12/14 00:46:49;;;;;;;;;;;;;;;;;;1011606;29;1075;-15
2021/12/14 00:47:20;;;;;;;;;;;;;;;;;;1007212;29;1185;-15
2021/12/14 00:47:51;;;;;;;;;;;;;;;;;;1007566;29;840;-15
2021/12/14 00:48:21;;;;;;;;;;;;;;;;;;1012941;29;1267;-15
2021/12/14 00:48:52;;;;;;;;;;;;;;;;;;1015232;29;951;-15
2021/12/14 00:49:24;;;;;;;;;;;;;;;;;;1014626;29;1136;-15
2021/12/14 00:49:55;;;;;;;;;;;;;;;;;;1015314;29;993;-16
2021/12/14 00:50:26;;;;;;;;;;;;;;;;;;1015131;29;1078;-15
2021/12/14 00:50:58;;;;;;;;;;;;;;;;;;1015567;29;820;-15
2021/12/14 00:51:28;;;;;;;;;;;;;;;;;;1015586;29;1903;-15
2021/12/14 00:52:00;;;;;;;;;;;;;;;;;;1015283;29;1038;-16
2021/12/14 00:52:30;;;;;;;;;;;;;;;;;;1011353;29;1477;-15
2021/12/14 00:53:02;;;;;;;;;;;;;;;;;;1008045;29;1031;-15
2021/12/14 00:53:33;;;;;;;;;;;;;;;;;;1007429;29;871;-15
2021/12/14 00:54:05;;;;;;;;;;;;;;;;;;1007264;29;1164;-15
2021/12/14 00:54:36;;;;;;;;;;;;;;;;;;1011719;29;831;-15
2021/12/14 00:55:08;;;;;;;;;;;;;;;;;;1011428;29;1554;-15
2021/12/14 00:55:41;;;;;;;;;;;;;;;;;;1007554;29;966;-15
2021/12/14 00:56:12;;;;;;;;;;;;;;;;;;1003069;29;1235;-15
2021/12/14 00:56:42;;;;;;;;;;;;;;;;;;1003848;29;851;-15
2021/12/14 00:57:13;;;;;;;;;;;;;;;;;;1003886;29;797;-15
2021/12/14 00:57:44;;;;;;;;;;;;;;;;;;1007305;29;1054;-15
2021/12/14 00:58:14;;;;;;;;;;;;;;;;;;1011715;29;915;-15
2021/12/14 00:58:45;;;;;;;;;;;;;;;;;;1013144;29;1209;-15
2021/12/14 00:59:16;;;;;;;;;;;;;;;;;;1011251;29;1581;-16
2021/12/14 00:59:47;;;;;;;;;;;;;;;;;;1010985;29;1247;-16
2021/12/14 01:00:19;;;;;;;;;;;;;;;;;;1015141;29;1218;-15
2021/12/14 01:00:57;;;;;;;;;;;;;;;;;;1011075;29;1187;-16
2021/12/14 01:01:30;;;;;;;;;;;;;;;;;;1003132;29;1388;-15
2021/12/14 01:02:06;;;;;;;;;;;;;;;;;;1003479;29;1275;-15
2021/12/14 01:02:38;;;;;;;;;;;;;;;;;;1013568;29;1522;-15
2021/12/14 01:03:10;;;;;;;;;;;;;;;;;;1011139;29;1050;-15
2021/12/14 01:03:44;;;;;;;;;;;;;;;;;;1003705;29;1089;-15
2021/12/14 01:04:18;;;;;;;;;;;;;;;;;;1003566;29;868;-16
2021/12/14 01:04:58;;;;;;;;;;;;;;;;;;1011926;29;1242;-15
2021/12/14 01:05:31;;;;;;;;;;;;;;;;;;1010512;29;1162;-15
2021/12/14 01:06:03;;;;;;;;;;;;;;;;;;1003375;29;1095;-15
2021/12/14 01:06:36;;;;;;;;;;;;;;;;;;1003243;29;1165;-16
2021/12/14 01:07:08;;;;;;;;;;;;;;;;;;1009972;29;1259;-15
2021/12/14 01:07:38;;;;;;;;;;;;;;;;;;1011260;29;1200;-15
2021/12/14 01:08:11;;;;;;;;;;;;;;;;;;1010290;29;2560;-15
2021/12/14 01:08:43;;;;;;;;;;;;;;;;;;1005053;29;1604;-16
2021/12/14 01:09:21;;;;;;;;;;;;;;;;;;1005341;29;1145;-15
2021/12/14 01:09:56;;;;;;;;;;;;;;;;;;1014021;29;1732;-15
2021/12/14 01:10:36;;;;;;;;;;;;;;;;;;1015633;29;1038;-15
2021/12/14 01:11:14;;;;;;;;;;;;;;;;;;1015262;29;1049;-16
2021/12/14 01:11:46;;;;;;;;;;;;;;;;;;1011026;29;1976;-15
2021/12/14 01:12:28;;;;;;;;;;;;;;;;;;1011390;29;1074;-15
2021/12/14 01:13:03;;;;;;;;;;;;;;;;;;1012130;29;1152;-15
2021/12/14 01:13:39;;;;;;;;;;;;;;;;;;1012934;29;1467;-16
2021/12/14 01:14:24;;;;;;;;;;;;;;;;;;1012520;29;1046;-15
2021/12/14 01:15:23;;;;;;;;;;;;;;;;;;1009990;29;975;-15
2021/12/14 01:16:13;;;;;;;;;;;;;;;;;;1011283;29;1034;-15
2021/12/14 01:16:54;;;;;;;;;;;;;;;;;;1010904;29;1402;-15
2021/12/14 01:17:41;;;;;;;;;;;;;;;;;;1003359;29;1389;-15
2021/12/14 01:18:45;;;;;;;;;;;;;;;;;;1005332;29;1035;-15
2021/12/14 01:19:42;;;;;;;;;;;;;;;;;;1005198;29;2316;-15
2021/12/14 01:20:07;;;;;;;;;;;;;;;;;;1008886;29;1762;-15
2021/12/14 01:20:59;;;;;;;;;;;;;;;;;;1010828;29;1027;-15
2021/12/14 01:23:02;;;;;;;;;;;;;;;;;;1010957;29;1176;-15
2021/12/14 01:23:18;;;;;;;;;;;;;;;;;;1006815;29;1461;-15
2021/12/14 01:24:00;;;;;;;;;;;;;;;;;;1004724;29;1071;-15
2021/12/14 01:25:17;;;;;;;;;;;;;;;;;;1009259;29;986;-15
2021/12/14 01:25:49;;;;;;;;;;;;;;;;;;1011112;29;1365;-15
2021/12/14 01:26:20;;;;;;;;;;;;;;;;;;1011377;29;1070;-15
2021/12/14 01:26:51;;;;;;;;;;;;;;;;;;1010488;29;1330;-15
2021/12/14 01:27:33;;;;;;;;;;;;;;;;;;1013930;29;1175;-15
2021/12/14 01:28:12;;;;;;;;;;;;;;;;;;1011556;29;1292;-15
2021/12/14 01:28:44;;;;;;;;;;;;;;;;;;1012112;29;913;-15
2021/12/14 01:29:17;;;;;;;;;;;;;;;;;;1014260;29;1019;-15
2021/12/14 01:29:52;;;;;;;;;;;;;;;;;;1014751;29;1481;-15
2021/12/14 01:30:28;;;;;;;;;;;;;;;;;;1011933;29;1215;-15
2021/12/14 01:31:19;;;;;;;;;;;;;;;;;;1007398;29;1346;-15
2021/12/14 01:31:51;;;;;;;;;;;;;;;;;;1007262;29;1335;-15
2021/12/14 01:32:26;;;;;;;;;;;;;;;;;;1007574;29;840;-15
2021/12/14 01:33:01;;;;;;;;;;;;;;;;;;1010639;29;924;-15
2021/12/14 01:33:31;;;;;;;;;;;;;;;;;;1011264;29;827;-15
2021/12/14 01:34:07;;;;;;;;;;;;;;;;;;1007344;29;1160;-15
2021/12/14 01:34:38;;;;;;;;;;;;;;;;;;1007288;29;1172;-15
2021/12/14 01:35:13;;;;;;;;;;;;;;;;;;1007261;29;2326;-15
2021/12/14 01:35:45;;;;;;;;;;;;;;;;;;1006691;29;1187;-15
2021/12/14 01:37:22;;;;;;;;;;;;;;;;;;999159;29;1642;-15
2021/12/14 01:38:02;;;;;;;;;;;;;;;;;;1007268;29;1252;-15
2021/12/14 01:38:45;;;;;;;;;;;;;;;;;;1007368;29;862;-15
2021/12/14 01:40:53;;;;;;;;;;;;;;;;;;1007409;29;1114;-15
2021/12/14 01:41:20;;;;;;;;;;;;;;;;;;1007179;29;1400;-15
2021/12/14 01:41:53;;;;;;;;;;;;;;;;;;1007234;29;1481;-15
2021/12/14 01:42:29;;;;;;;;;;;;;;;;;;1007126;29;1359;-15
2021/12/14 01:42:59;;;;;;;;;;;;;;;;;;1008330;29;1190;-15
2021/12/14 01:43:38;;;;;;;;;;;;;;;;;;1011084;29;1170;-15
2021/12/14 01:44:15;;;;;;;;;;;;;;;;;;1011153;29;1365;-15
2021/12/14 01:44:52;;;;;;;;;;;;;;;;;;1011130;29;1219;-15
2021/12/14 01:45:27;;;;;;;;;;;;;;;;;;1011111;29;1341;-15
2021/12/14 01:45:59;;;;;;;;;;;;;;;;;;1009691;29;939;-15
2021/12/14 01:46:38;;;;;;;;;;;;;;;;;;1003417;29;1231;-15
2021/12/14 01:47:33;;;;;;;;;;;;;;;;;;1007046;29;972;-15
2021/12/14 01:48:40;;;;;;;;;;;;;;;;;;1011612;29;1010;-15
2021/12/14 01:49:38;;;;;;;;;;;;;;;;;;1011148;29;1329;-15
2021/12/14 01:50:30;;;;;;;;;;;;;;;;;;1011213;29;1297;-15
2021/12/14 01:51:17;;;;;;;;;;;;;;;;;;1011179;29;844;-16
2021/12/14 01:52:04;;;;;;;;;;;;;;;;;;1011011;29;1310;-15
2021/12/14 01:52:37;;;;;;;;;;;;;;;;;;1007349;29;1335;-15
2021/12/14 01:53:09;;;;;;;;;;;;;;;;;;1003258;29;1287;-15
2021/12/14 01:53:43;;;;;;;;;;;;;;;;;;1003558;29;1515;-15
2021/12/14 01:54:16;;;;;;;;;;;;;;;;;;1004234;29;1651;-15
2021/12/14 01:54:48;;;;;;;;;;;;;;;;;;1008153;29;848;-15
2021/12/14 01:55:22;;;;;;;;;;;;;;;;;;1007366;29;1006;-15
2021/12/14 01:55:54;;;;;;;;;;;;;;;;;;1008701;29;936;-15
2021/12/14 01:56:28;;;;;;;;;;;;;;;;;;1011232;29;1250;-15
2021/12/14 01:57:01;;;;;;;;;;;;;;;;;;1007279;29;1331;-15
2021/12/14 01:57:32;;;;;;;;;;;;;;;;;;1007220;29;1321;-15
2021/12/14 01:58:05;;;;;;;;;;;;;;;;;;1006599;29;1214;-15
2021/12/14 01:58:38;;;;;;;;;;;;;;;;;;1007880;29;1182;-15
2021/12/14 01:59:12;;;;;;;;;;;;;;;;;;1011070;29;1203;-15
2021/12/14 01:59:44;;;;;;;;;;;;;;;;;;1007041;29;1565;-16
2021/12/14 02:00:20;;;;;;;;;;;;;;;;;;1007098;29;1274;-15
2021/12/14 02:00:54;;;;;;;;;;;;;;;;;;1007212;29;995;-15
2021/12/14 02:01:28;;;;;;;;;;;;;;;;;;1008570;29;1612;-15
2021/12/14 02:02:22;;;;;;;;;;;;;;;;;;1007008;29;1299;-15
2021/12/14 02:02:53;;;;;;;;;;;;;;;;;;1006961;29;1486;-15
2021/12/14 02:03:28;;;;;;;;;;;;;;;;;;1006975;29;939;-15
2021/12/14 02:04:00;;;;;;;;;;;;;;;;;;1010923;29;1627;-15
2021/12/14 02:04:32;;;;;;;;;;;;;;;;;;1006268;29;991;-15
2021/12/14 02:05:07;;;;;;;;;;;;;;;;;;1003445;29;1246;-15
2021/12/14 02:05:40;;;;;;;;;;;;;;;;;;999449;29;1309;-15
2021/12/14 02:06:15;;;;;;;;;;;;;;;;;;1004245;29;1247;-15
2021/12/14 02:06:57;;;;;;;;;;;;;;;;;;1003406;29;1172;-15
2021/12/14 02:07:30;;;;;;;;;;;;;;;;;;1005591;29;1407;-15
2021/12/14 02:08:03;;;;;;;;;;;;;;;;;;1007461;29;840;-16
2021/12/14 02:08:34;;;;;;;;;;;;;;;;;;1003506;29;1318;-15
2021/12/14 02:09:07;;;;;;;;;;;;;;;;;;1003828;29;1188;-15
2021/12/14 02:09:38;;;;;;;;;;;;;;;;;;1007359;29;1140;-15
2021/12/14 02:10:14;;;;;;;;;;;;;;;;;;1007861;29;884;-15
2021/12/14 02:10:46;;;;;;;;;;;;;;;;;;1007254;29;1336;-15
2021/12/14 02:11:16;;;;;;;;;;;;;;;;;;1003025;29;1243;-15
2021/12/14 02:11:49;;;;;;;;;;;;;;;;;;1003376;29;1986;-15
2021/12/14 02:12:21;;;;;;;;;;;;;;;;;;1007053;29;1179;-15
2021/12/14 02:12:52;;;;;;;;;;;;;;;;;;1010996;29;1215;-15
2021/12/14 02:13:25;;;;;;;;;;;;;;;;;;1007115;29;1207;-15
2021/12/14 02:13:56;;;;;;;;;;;;;;;;;;1007344;29;1164;-15
2021/12/14 02:14:27;;;;;;;;;;;;;;;;;;1007136;29;1395;-15
2021/12/14 02:15:04;;;;;;;;;;;;;;;;;;1003474;29;1141;-25
2021/12/14 02:15:38;;;;;;;;;;;;;;;;;;1000436;29;1177;-15
2021/12/14 02:16:14;;;;;;;;;;;;;;;;;;1007284;29;943;-15
2021/12/14 02:16:49;;;;;;;;;;;;;;;;;;1007068;29;947;-15
2021/12/14 02:17:22;;;;;;;;;;;;;;;;;;1008887;29;954;-16
2021/12/14 02:17:56;;;;;;;;;;;;;;;;;;1007056;29;1025;-15
2021/12/14 02:18:28;;;;;;;;;;;;;;;;;;1006733;29;1073;-15
2021/12/14 02:19:04;;;;;;;;;;;;;;;;;;1007001;29;1199;-15
2021/12/14 02:19:35;;;;;;;;;;;;;;;;;;1007748;29;967;-15
2021/12/14 02:20:07;;;;;;;;;;;;;;;;;;1011223;29;883;-15
2021/12/14 02:20:38;;;;;;;;;;;;;;;;;;1007389;29;1229;-16
2021/12/14 02:21:10;;;;;;;;;;;;;;;;;;1003193;29;1256;-15
2021/12/14 02:21:45;;;;;;;;;;;;;;;;;;1003512;29;847;-16
2021/12/14 02:22:16;;;;;;;;;;;;;;;;;;1004281;29;1323;-16
2021/12/14 02:22:47;;;;;;;;;;;;;;;;;;1008111;29;1195;-16
2021/12/14 02:23:17;;;;;;;;;;;;;;;;;;1011150;29;824;-16
2021/12/14 02:23:49;;;;;;;;;;;;;;;;;;1011116;29;1166;-15
2021/12/14 02:24:22;;;;;;;;;;;;;;;;;;1011135;29;1154;-15
2021/12/14 02:24:52;;;;;;;;;;;;;;;;;;1011422;29;2290;-16
2021/12/14 02:25:23;;;;;;;;;;;;;;;;;;1015015;29;1246;-15
2021/12/14 02:25:55;;;;;;;;;;;;;;;;;;1011753;29;788;-15
2021/12/14 02:26:27;;;;;;;;;;;;;;;;;;1007663;29;1113;-15
2021/12/14 02:26:59;;;;;;;;;;;;;;;;;;1008623;29;1156;-15
2021/12/14 02:27:33;;;;;;;;;;;;;;;;;;1011442;29;1213;-15
2021/12/14 02:28:05;;;;;;;;;;;;;;;;;;1011937;29;1113;-15
2021/12/14 02:28:36;;;;;;;;;;;;;;;;;;1012035;29;836;-15
2021/12/14 02:29:08;;;;;;;;;;;;;;;;;;1011635;29;1364;-15
2021/12/14 02:29:42;;;;;;;;;;;;;;;;;;1007920;29;1388;-15
2021/12/14 02:30:15;;;;;;;;;;;;;;;;;;1008055;29;1529;-15
2021/12/14 02:30:46;;;;;;;;;;;;;;;;;;1004040;29;1240;-15
2021/12/14 02:31:18;;;;;;;;;;;;;;;;;;1005154;29;1003;-15
2021/12/14 02:31:49;;;;;;;;;;;;;;;;;;1011669;29;1915;-15
2021/12/14 02:32:21;;;;;;;;;;;;;;;;;;1012031;29;970;-15
2021/12/14 02:32:52;;;;;;;;;;;;;;;;;;1011926;29;1140;-15
2021/12/14 02:33:24;;;;;;;;;;;;;;;;;;1011804;29;994;-17
2021/12/14 02:33:57;;;;;;;;;;;;;;;;;;1011926;29;1387;-15
2021/12/14 02:34:27;;;;;;;;;;;;;;;;;;1007858;29;1183;-15
2021/12/14 02:35:00;;;;;;;;;;;;;;;;;;1008159;29;1191;-15
2021/12/14 02:35:31;;;;;;;;;;;;;;;;;;1010528;29;1507;-15
2021/12/14 02:36:03;;;;;;;;;;;;;;;;;;1006499;29;1176;-15
2021/12/14 02:36:38;;;;;;;;;;;;;;;;;;1007791;29;1301;-15
2021/12/14 02:37:08;;;;;;;;;;;;;;;;;;1007620;29;879;-15
2021/12/14 02:37:44;;;;;;;;;;;;;;;;;;1005044;29;1287;-15
2021/12/14 02:38:17;;;;;;;;;;;;;;;;;;1006699;29;1270;-15
2021/12/14 02:38:52;;;;;;;;;;;;;;;;;;1004117;29;1179;-15
2021/12/14 02:39:45;;;;;;;;;;;;;;;;;;1005780;29;860;-15
2021/12/14 02:40:20;;;;;;;;;;;;;;;;;;1007426;29;1652;-15
2021/12/14 02:40:57;;;;;;;;;;;;;;;;;;1008033;29;889;-15
2021/12/14 02:41:32;;;;;;;;;;;;;;;;;;1007536;29;1450;-15
2021/12/14 02:42:04;;;;;;;;;;;;;;;;;;1005826;29;1105;-15
2021/12/14 02:42:35;;;;;;;;;;;;;;;;;;1007583;29;1194;-15
2021/12/14 02:43:05;;;;;;;;;;;;;;;;;;1007533;29;875;-15
2021/12/14 02:43:40;;;;;;;;;;;;;;;;;;1004039;29;1326;-15
2021/12/14 02:44:11;;;;;;;;;;;;;;;;;;1006895;29;1463;-15
2021/12/14 02:44:45;;;;;;;;;;;;;;;;;;1003996;29;1286;-15
2021/12/14 02:45:19;;;;;;;;;;;;;;;;;;1005210;29;1113;-15
2021/12/14 02:45:50;;;;;;;;;;;;;;;;;;1005027;29;1172;-16
2021/12/14 02:46:25;;;;;;;;;;;;;;;;;;1004145;29;896;-15
2021/12/14 02:46:58;;;;;;;;;;;;;;;;;;1004187;29;2128;-15
2021/12/14 02:47:30;;;;;;;;;;;;;;;;;;1005094;29;1306;-15
2021/12/14 02:48:04;;;;;;;;;;;;;;;;;;1009298;29;899;-15
2021/12/14 02:48:35;;;;;;;;;;;;;;;;;;1011768;29;934;-15
2021/12/14 02:49:07;;;;;;;;;;;;;;;;;;1011760;29;819;-15
2021/12/14 02:49:38;;;;;;;;;;;;;;;;;;1011623;29;1268;-15
2021/12/14 02:50:09;;;;;;;;;;;;;;;;;;1011756;29;1114;-15
2021/12/14 02:50:40;;;;;;;;;;;;;;;;;;1011773;29;1160;-15
2021/12/14 02:51:13;;;;;;;;;;;;;;;;;;1011696;29;1616;-15
2021/12/14 02:51:46;;;;;;;;;;;;;;;;;;1011704;29;1919;-15
2021/12/14 02:52:34;;;;;;;;;;;;;;;;;;1011915;29;819;-15
2021/12/14 02:53:05;;;;;;;;;;;;;;;;;;1011873;29;1199;-15
2021/12/14 02:53:36;;;;;;;;;;;;;;;;;;1003704;29;1330;-15
2021/12/14 02:54:12;;;;;;;;;;;;;;;;;;999826;29;1287;-15
2021/12/14 02:54:46;;;;;;;;;;;;;;;;;;999987;29;1387;-15
2021/12/14 02:55:21;;;;;;;;;;;;;;;;;;1002409;29;1299;-16
2021/12/14 02:55:51;;;;;;;;;;;;;;;;;;1008110;29;836;-15
2021/12/14 02:56:29;;;;;;;;;;;;;;;;;;1008834;29;1506;-15
2021/12/14 02:57:10;;;;;;;;;;;;;;;;;;999866;29;1302;-15
2021/12/14 02:57:43;;;;;;;;;;;;;;;;;;1000011;29;1335;-15
2021/12/14 02:58:13;;;;;;;;;;;;;;;;;;999976;29;1057;-15
2021/12/14 02:58:45;;;;;;;;;;;;;;;;;;1005315;29;904;-16
2021/12/14 02:59:17;;;;;;;;;;;;;;;;;;1011785;29;1148;-15
2021/12/14 02:59:49;;;;;;;;;;;;;;;;;;1007726;29;1191;-15
2021/12/14 03:00:21;;;;;;;;;;;;;;;;;;1007976;29;1134;-15
2021/12/14 03:00:53;;;;;;;;;;;;;;;;;;1007717;29;976;-16
2021/12/14 03:01:23;;;;;;;;;;;;;;;;;;1008414;29;1029;-15
2021/12/14 03:01:56;;;;;;;;;;;;;;;;;;1012278;29;835;-15
2021/12/14 03:02:30;;;;;;;;;;;;;;;;;;1011667;29;1521;-15
2021/12/14 03:03:02;;;;;;;;;;;;;;;;;;1011886;29;760;-15
2021/12/14 03:03:33;;;;;;;;;;;;;;;;;;1007964;29;1279;-15
2021/12/14 03:04:04;;;;;;;;;;;;;;;;;;1007845;29;1451;-15
2021/12/14 03:04:43;;;;;;;;;;;;;;;;;;1007979;29;1183;-15
2021/12/14 03:05:25;;;;;;;;;;;;;;;;;;1005230;29;1140;-15
2021/12/14 03:05:59;;;;;;;;;;;;;;;;;;1008042;29;1163;-16
2021/12/14 03:06:31;;;;;;;;;;;;;;;;;;1007848;29;1386;-16
2021/12/14 03:07:02;;;;;;;;;;;;;;;;;;1009867;29;1255;-15
2021/12/14 03:07:43;;;;;;;;;;;;;;;;;;1007024;29;904;-15
2021/12/14 03:08:25;;;;;;;;;;;;;;;;;;1007597;29;1056;-15
2021/12/14 03:09:16;;;;;;;;;;;;;;;;;;1007612;29;968;-16
2021/12/14 03:11:10;;;;;;;;;;;;;;;;;;1011828;29;954;-15
2021/12/14 03:11:41;;;;;;;;;;;;;;;;;;1011508;29;1969;-15
2021/12/14 03:12:17;;;;;;;;;;;;;;;;;;1011566;29;801;-15
2021/12/14 03:12:52;;;;;;;;;;;;;;;;;;1011752;29;1496;-15
2021/12/14 03:13:24;;;;;;;;;;;;;;;;;;1011157;29;1165;-15
2021/12/14 03:13:54;;;;;;;;;;;;;;;;;;1011733;29;1786;-15
2021/12/14 03:14:25;;;;;;;;;;;;;;;;;;1011864;29;1051;-15
2021/12/14 03:15:01;;;;;;;;;;;;;;;;;;1011637;29;880;-15
2021/12/14 03:15:41;;;;;;;;;;;;;;;;;;1011762;29;947;-15
2021/12/14 03:16:18;;;;;;;;;;;;;;;;;;1011700;29;1396;-15
2021/12/14 03:16:49;;;;;;;;;;;;;;;;;;1011375;29;1081;-16
2021/12/14 03:17:20;;;;;;;;;;;;;;;;;;1011266;29;1246;-15
2021/12/14 03:17:55;;;;;;;;;;;;;;;;;;1010551;29;1025;-15
2021/12/14 03:18:30;;;;;;;;;;;;;;;;;;1008417;29;836;-15
2021/12/14 03:19:02;;;;;;;;;;;;;;;;;;1011810;29;848;-15
2021/12/14 03:19:32;;;;;;;;;;;;;;;;;;1011705;29;1259;-15
2021/12/14 03:20:14;;;;;;;;;;;;;;;;;;1011666;29;973;-15
2021/12/14 03:20:47;;;;;;;;;;;;;;;;;;1011687;29;903;-16
2021/12/14 03:21:20;;;;;;;;;;;;;;;;;;1007814;29;959;-16
2021/12/14 03:21:50;;;;;;;;;;;;;;;;;;1007854;29;1018;-15
2021/12/14 03:22:24;;;;;;;;;;;;;;;;;;1007963;29;994;-15
2021/12/14 03:23:02;;;;;;;;;;;;;;;;;;1008583;29;868;-15
2021/12/14 03:23:34;;;;;;;;;;;;;;;;;;1012095;29;796;-16
2021/12/14 03:24:07;;;;;;;;;;;;;;;;;;1012058;29;1619;-15
2021/12/14 03:24:38;;;;;;;;;;;;;;;;;;1012078;29;867;-15
2021/12/14 03:25:09;;;;;;;;;;;;;;;;;;1012161;29;872;-15
2021/12/14 03:25:43;;;;;;;;;;;;;;;;;;1012089;29;1317;-15
2021/12/14 03:26:14;;;;;;;;;;;;;;;;;;1011687;29;1273;-15
2021/12/14 03:26:47;;;;;;;;;;;;;;;;;;1011727;29;907;-15
2021/12/14 03:27:17;;;;;;;;;;;;;;;;;;1011447;29;1348;-15
2021/12/14 03:27:50;;;;;;;;;;;;;;;;;;1011733;29;867;-15
2021/12/14 03:28:22;;;;;;;;;;;;;;;;;;1011891;29;1101;-15
2021/12/14 03:28:57;;;;;;;;;;;;;;;;;;1007888;29;1371;-24
2021/12/14 03:29:29;;;;;;;;;;;;;;;;;;1004009;29;1395;-15
2021/12/14 03:30:00;;;;;;;;;;;;;;;;;;1003563;29;1021;-15
2021/12/14 03:30:34;;;;;;;;;;;;;;;;;;1004770;29;1123;-15
2021/12/14 03:31:24;;;;;;;;;;;;;;;;;;1007574;29;999;-16
2021/12/14 03:31:55;;;;;;;;;;;;;;;;;;1007679;29;1588;-15
2021/12/14 03:32:33;;;;;;;;;;;;;;;;;;1011300;29;2161;-15
2021/12/14 03:33:19;;;;;;;;;;;;;;;;;;1007745;29;1431;-16
2021/12/14 03:33:55;;;;;;;;;;;;;;;;;;1011221;29;1288;-15
2021/12/14 03:34:29;;;;;;;;;;;;;;;;;;1004430;29;905;-15
2021/12/14 03:34:59;;;;;;;;;;;;;;;;;;1000435;29;1180;-15
2021/12/14 03:35:38;;;;;;;;;;;;;;;;;;1004660;29;1216;-15
2021/12/14 03:36:10;;;;;;;;;;;;;;;;;;1007435;29;1208;-15
2021/12/14 03:36:44;;;;;;;;;;;;;;;;;;1004440;29;1349;-15
2021/12/14 03:37:24;;;;;;;;;;;;;;;;;;1007708;29;1227;-15
2021/12/14 03:38:03;;;;;;;;;;;;;;;;;;999753;29;1349;-15
2021/12/14 03:38:41;;;;;;;;;;;;;;;;;;993444;29;1320;-15
2021/12/14 03:39:14;;;;;;;;;;;;;;;;;;995905;29;1220;-15
2021/12/14 03:39:48;;;;;;;;;;;;;;;;;;1000761;29;1411;-15
2021/12/14 03:40:19;;;;;;;;;;;;;;;;;;1005908;29;1234;-15
2021/12/14 03:40:56;;;;;;;;;;;;;;;;;;1003756;29;1145;-15
2021/12/14 03:41:32;;;;;;;;;;;;;;;;;;1004907;29;1211;-15
2021/12/14 03:42:08;;;;;;;;;;;;;;;;;;1007335;29;1273;-15
2021/12/14 03:42:40;;;;;;;;;;;;;;;;;;1010148;29;899;-15
2021/12/14 03:43:16;;;;;;;;;;;;;;;;;;1011680;29;1186;-15
2021/12/14 03:44:06;;;;;;;;;;;;;;;;;;1011485;29;1171;-15
2021/12/14 03:44:46;;;;;;;;;;;;;;;;;;1011581;29;1070;-16
2021/12/14 03:45:21;;;;;;;;;;;;;;;;;;1003742;29;1263;-15
2021/12/14 03:45:54;;;;;;;;;;;;;;;;;;1000033;29;1251;-15
2021/12/14 03:46:26;;;;;;;;;;;;;;;;;;998320;29;1095;-15
2021/12/14 03:47:03;;;;;;;;;;;;;;;;;;1003000;29;1207;-15
2021/12/14 03:47:37;;;;;;;;;;;;;;;;;;1007856;29;983;-15
2021/12/14 03:48:07;;;;;;;;;;;;;;;;;;1007663;29;1183;-15
2021/12/14 03:48:38;;;;;;;;;;;;;;;;;;1007942;29;1356;-15
2021/12/14 03:49:09;;;;;;;;;;;;;;;;;;1007585;29;883;-15
2021/12/14 03:49:43;;;;;;;;;;;;;;;;;;1008041;29;1368;-15
2021/12/14 03:50:17;;;;;;;;;;;;;;;;;;1011729;29;1273;-15
2021/12/14 03:50:48;;;;;;;;;;;;;;;;;;1007578;29;1660;-15
2021/12/14 03:51:21;;;;;;;;;;;;;;;;;;999725;29;1094;-15
2021/12/14 03:51:54;;;;;;;;;;;;;;;;;;999673;29;1915;-15
2021/12/14 03:52:29;;;;;;;;;;;;;;;;;;996540;29;2464;-15
2021/12/14 03:53:01;;;;;;;;;;;;;;;;;;1006378;29;1585;-15
2021/12/14 03:53:32;;;;;;;;;;;;;;;;;;1011557;29;1384;-15
2021/12/14 03:54:03;;;;;;;;;;;;;;;;;;1011553;29;2314;-15
2021/12/14 03:54:37;;;;;;;;;;;;;;;;;;1007795;29;1385;-16
2021/12/14 03:55:19;;;;;;;;;;;;;;;;;;1003691;29;1158;-15
2021/12/14 03:55:53;;;;;;;;;;;;;;;;;;1000078;29;1538;-15
2021/12/14 03:56:25;;;;;;;;;;;;;;;;;;1005720;29;1109;-15
2021/12/14 03:56:56;;;;;;;;;;;;;;;;;;1007746;29;1357;-15
2021/12/14 03:57:29;;;;;;;;;;;;;;;;;;1007425;29;1115;-15
2021/12/14 03:58:30;;;;;;;;;;;;;;;;;;1003815;29;1487;-15
2021/12/14 03:59:01;;;;;;;;;;;;;;;;;;1002024;29;1184;-15
2021/12/14 03:59:33;;;;;;;;;;;;;;;;;;1000105;29;1388;-16
2021/12/14 04:00:06;;;;;;;;;;;;;;;;;;1003746;29;1207;-15
2021/12/14 04:00:39;;;;;;;;;;;;;;;;;;1000792;29;1496;-15
2021/12/14 04:01:15;;;;;;;;;;;;;;;;;;1004627;29;919;-15
2021/12/14 04:01:53;;;;;;;;;;;;;;;;;;1003407;29;987;-15
2021/12/14 04:02:25;;;;;;;;;;;;;;;;;;1005708;29;1255;-16
2021/12/14 04:02:57;;;;;;;;;;;;;;;;;;1007410;29;1175;-15
2021/12/14 04:03:41;;;;;;;;;;;;;;;;;;1005650;29;1432;-15
2021/12/14 04:04:23;;;;;;;;;;;;;;;;;;1004919;29;1664;-15
2021/12/14 04:05:01;;;;;;;;;;;;;;;;;;1007676;29;1180;-15
2021/12/14 04:05:34;;;;;;;;;;;;;;;;;;1010416;29;1364;-15
2021/12/14 04:06:07;;;;;;;;;;;;;;;;;;1007226;29;1557;-16
2021/12/14 04:06:38;;;;;;;;;;;;;;;;;;1005897;29;1321;-15
2021/12/14 04:07:10;;;;;;;;;;;;;;;;;;1004561;29;844;-15
2021/12/14 04:07:44;;;;;;;;;;;;;;;;;;1007947;29;1270;-15
2021/12/14 04:08:21;;;;;;;;;;;;;;;;;;1011533;29;1285;-15
2021/12/14 04:08:51;;;;;;;;;;;;;;;;;;1007703;29;2490;-15
2021/12/14 04:09:24;;;;;;;;;;;;;;;;;;1006479;29;1178;-15
2021/12/14 04:09:55;;;;;;;;;;;;;;;;;;1003809;29;1274;-16
2021/12/14 04:10:29;;;;;;;;;;;;;;;;;;1004199;29;955;-16
2021/12/14 04:11:02;;;;;;;;;;;;;;;;;;1005596;29;1350;-16
2021/12/14 04:11:33;;;;;;;;;;;;;;;;;;1004317;29;1974;-16
2021/12/14 04:12:05;;;;;;;;;;;;;;;;;;1007512;29;1141;-16